KCWN

Cheyenne Mountain Airport

Cheyenne Mountain, Colorado, USA
METAR KCWN 230756Z AUTO 19008KT 10SM CLR M06/M08 A2994 RMK AO2 SLP097 T10601084 $
Observed Flight Rules
Feb-23 @ 07:56 UTC (19 minutes ago) Visual Flight Rules
Wind Visibility Clouds
190° at 8 knots 10 miles
  • Clear skies
Temperatures Readings
Current -6°C / 21°F
Dewpoint -8°C / 18°F
Humidity 86%
Altimeter 29.94" Hg
Pressure 1009.7 hPa
Elevation 2040
METAR KCWN 230756Z AUTO 19008KT 10SM CLR M06/M08 A2994 RMK AO2 SLP097 T10601084 $
Observed Flight Rules
Feb-23 @ 07:56 UTC
(19 minutes ago)
VFR
Wind Visibility
190° at 8 knots 10 miles
Clouds
  • Clear skies
Temperature Dewpoint
-6°C / 21°F -8°C / 18°F
Humidity Altimeter Pressure
86% 29.94" Hg 1009.7 hPa